Decoded Metar for LKTB (TURANY in CZECH REPUBLIC) (IATA:BRQ) | Meteo·Mobile Aviation Weather
aviador You're here:

LKTB Decoded Metar

TURANY in CZECH REPUBLIC
Report Time2019-01-21 15:32:00
UTC Time2019-01-21 16:03:44
Flight Rules ifr IFR
Wind090° at 07 kt
W.Decomp.*RWY 09: 7.0 kt HW 0.4 kt LCW
RWY 10: 6.8 kt HW 1.6 kt LCW
W.Rank090° ranks 15
Current wind is above 090° avg. (5.8)
Visibility4900 m
Phenomena:Mist
Clouds:N/A
Expected CloudBase > 1,200 ft AGL from Temp-Dew spread
CeilingNone
Temp-4°C (ISA -17)
Dew Point-7°C (80% RH)
AAT-9.3°C
QNH1020 hPa
Density Alt-1,519 ft
Elevation807 ft
Report Wrong Elevation
Raw Report
SPECI LKTB 211532Z 09007KT 4900 BR NSC M04/M07 Q1020 RMK REG QNH 1014=

Extra information for LKTB:More info

Metar Taf Metar & Taf Last 4 Metars F.Rules Stats Wind Profile Meteogram Temp Stats Airport Information Weather charts Add Link Nearby VenuesMetar ALERT Operation Metar Decoded Social comments